createdAt,value
2019-01-28T00:00:56.292Z,93226.60
2019-01-28T00:03:24.758Z,93233.94
2019-01-28T00:05:53.047Z,93229.97
2019-01-28T00:08:22.177Z,93233.13
2019-01-28T00:10:50.518Z,93239.62
2019-01-28T00:13:18.951Z,93243.58
2019-01-28T00:15:47.840Z,93246.61
2019-01-28T00:18:16.234Z,93250.05
2019-01-28T00:20:44.541Z,93245.29
2019-01-28T00:23:12.825Z,93241.85
2019-01-28T00:25:41.154Z,93237.00
2019-01-28T00:28:10.674Z,93229.72
2019-01-28T00:30:38.924Z,93226.92
2019-01-28T00:33:07.320Z,93226.83
2019-01-28T00:35:37.231Z,93223.59
2019-01-28T00:38:05.512Z,93230.23
2019-01-28T00:40:33.843Z,93232.09
2019-01-28T00:43:02.136Z,93219.88
2019-01-28T00:45:30.414Z,93209.81
2019-01-28T00:47:58.742Z,93214.30
2019-01-28T00:50:27.034Z,93206.27
2019-01-28T00:52:55.310Z,93210.52
2019-01-28T00:55:23.626Z,93201.92
2019-01-28T00:57:53.176Z,93211.45
2019-01-28T01:00:23.318Z,93207.87
2019-01-28T01:02:51.709Z,93205.43
2019-01-28T01:05:20.069Z,93211.44
2019-01-28T01:07:48.360Z,93219.17
2019-01-28T01:10:17.535Z,93214.09
2019-01-28T01:12:45.808Z,93214.52
2019-01-28T01:15:16.043Z,93220.58
2019-01-28T01:17:46.008Z,93214.09
2019-01-28T01:20:15.928Z,93207.02
2019-01-28T01:22:44.290Z,93206.03
2019-01-28T01:25:13.346Z,93198.89
2019-01-28T01:27:41.637Z,93194.13
2019-01-28T01:30:15.547Z,93190.25
2019-01-28T01:32:43.896Z,93185.61
2019-01-28T01:35:12.229Z,93183.88
2019-01-28T01:37:40.519Z,93178.47
2019-01-28T01:40:13.827Z,93182.19
2019-01-28T01:42:42.098Z,93180.88
2019-01-28T01:45:12.835Z,93175.23
2019-01-28T01:47:42.794Z,93167.05
2019-01-28T01:50:11.694Z,93170.19
2019-01-28T01:52:39.977Z,93178.41
2019-01-28T01:55:10.851Z,93181.95
2019-01-28T01:57:39.145Z,93176.23
2019-01-28T02:00:15.850Z,93168.95
2019-01-28T02:02:44.122Z,93161.61
2019-01-28T02:05:12.479Z,93156.82
2019-01-28T02:07:40.812Z,93169.65
2019-01-28T02:10:13.991Z,93167.70
2019-01-28T02:12:43.122Z,93158.25
2019-01-28T02:15:14.543Z,93165.41
2019-01-28T02:17:42.853Z,93157.17
2019-01-28T02:20:11.764Z,93147.58
2019-01-28T02:22:40.105Z,93148.84
2019-01-28T02:25:10.819Z,93139.97
2019-01-28T02:27:39.100Z,93139.68
2019-01-28T02:30:15.091Z,93136.13
2019-01-28T02:32:43.384Z,93137.81
2019-01-28T02:38:30.636Z,93145.81
2019-01-28T02:40:58.910Z,93133.23
2019-01-28T02:43:27.196Z,93137.54
2019-01-28T02:45:55.523Z,93123.69
2019-01-28T02:48:23.827Z,93126.62
2019-01-28T02:50:52.099Z,93123.36
2019-01-28T02:53:20.418Z,93118.37
2019-01-28T02:55:48.689Z,93108.25
2019-01-28T02:58:16.967Z,93114.43
2019-01-28T03:00:45.285Z,93113.02
2019-01-28T03:03:13.570Z,93110.16
2019-01-28T03:05:41.861Z,93115.06
2019-01-28T03:08:10.178Z,93111.27
2019-01-28T03:10:38.470Z,93120.69
2019-01-28T03:13:06.751Z,93113.80
2019-01-28T03:15:35.132Z,93116.19
2019-01-28T03:18:03.403Z,93120.86
2019-01-28T03:20:31.696Z,93117.36
2019-01-28T03:23:00.016Z,93125.25
2019-01-28T03:25:28.370Z,93132.21
2019-01-28T03:27:56.653Z,93142.13
2019-01-28T03:30:24.978Z,93142.73
2019-01-28T03:32:53.279Z,93137.39
2019-01-28T03:35:21.557Z,93133.35
2019-01-28T03:37:49.887Z,93126.77
2019-01-28T03:40:19.814Z,93137.18
2019-01-28T03:42:48.635Z,93128.66
2019-01-28T03:45:18.897Z,93120.72
2019-01-28T03:47:47.175Z,93122.27
2019-01-28T03:50:17.098Z,93125.30
2019-01-28T03:52:45.588Z,93116.34
2019-01-28T03:55:13.862Z,93117.95
2019-01-28T03:57:42.197Z,93118.81
2019-01-28T04:00:18.589Z,93125.69
2019-01-28T04:02:46.858Z,93116.48
2019-01-28T04:05:15.152Z,93113.73
2019-01-28T04:07:43.516Z,93114.88
2019-01-28T04:10:15.054Z,93123.40
2019-01-28T04:12:43.343Z,93127.67
2019-01-28T04:15:14.004Z,93123.77
2019-01-28T04:17:42.286Z,93123.05
2019-01-28T04:20:12.915Z,93120.94
2019-01-28T04:22:41.241Z,93118.75
2019-01-28T04:25:10.773Z,93115.50
2019-01-28T04:27:39.055Z,93114.05
2019-01-28T04:30:10.639Z,93107.57
2019-01-28T04:32:38.936Z,93103.19
2019-01-28T04:35:08.678Z,93103.37
2019-01-28T04:37:36.989Z,93099.03
2019-01-28T04:40:11.343Z,93096.48
2019-01-28T04:42:39.632Z,93092.73
2019-01-28T04:45:10.693Z,93097.63
2019-01-28T04:47:38.994Z,93106.95
2019-01-28T04:50:10.494Z,93107.78
2019-01-28T04:52:38.819Z,93106.11
2019-01-28T04:55:08.245Z,93110.14
2019-01-28T04:57:36.696Z,93106.26
2019-01-28T05:00:08.341Z,93114.40
2019-01-28T05:02:36.634Z,93118.28
2019-01-28T05:05:05.766Z,93106.50
2019-01-28T05:07:34.082Z,93101.66
2019-01-28T05:10:02.848Z,93104.97
2019-01-28T05:12:31.188Z,93104.33
2019-01-28T05:14:59.532Z,93095.64
2019-01-28T05:17:27.815Z,93089.93
2019-01-28T05:19:56.097Z,93085.46
2019-01-28T05:22:24.423Z,93096.11
2019-01-28T05:24:52.716Z,93087.59
2019-01-28T05:27:20.998Z,93090.70
2019-01-28T05:29:49.317Z,93087.68
2019-01-28T05:32:17.614Z,93090.43
2019-01-28T05:34:45.904Z,93086.72
2019-01-28T05:37:15.011Z,93092.72
2019-01-28T05:39:43.279Z,93082.16
2019-01-28T05:42:11.567Z,93089.68
2019-01-28T05:44:39.885Z,93083.37
2019-01-28T05:47:08.163Z,93092.31
2019-01-28T05:49:36.452Z,93088.37
2019-01-28T05:52:04.789Z,93084.95
2019-01-28T05:54:33.072Z,93092.08
2019-01-28T05:57:01.357Z,93092.77
2019-01-28T05:59:29.672Z,93082.78
2019-01-28T06:01:57.948Z,93080.98
2019-01-28T06:04:26.234Z,93084.14
2019-01-28T06:06:54.543Z,93096.99
2019-01-28T06:09:22.823Z,93102.41
2019-01-28T06:11:51.115Z,93101.08
2019-01-28T06:14:19.439Z,93104.70
2019-01-28T06:16:47.792Z,93113.94
2019-01-28T06:19:16.078Z,93111.81
2019-01-28T06:21:44.384Z,93095.78
2019-01-28T06:24:12.664Z,93105.95
2019-01-28T06:26:40.945Z,93097.98
2019-01-28T06:29:09.238Z,93089.66
2019-01-28T06:31:37.518Z,93097.22
2019-01-28T06:34:05.804Z,93094.83
2019-01-28T06:36:34.126Z,93100.30
2019-01-28T06:39:02.479Z,93104.18
2019-01-28T06:41:30.763Z,93109.55
2019-01-28T06:43:59.078Z,93113.73
2019-01-28T06:46:27.355Z,93124.72
2019-01-28T06:48:55.639Z,93117.77
2019-01-28T06:51:23.957Z,93103.16
2019-01-28T06:53:52.243Z,93103.28
2019-01-28T06:56:20.532Z,93094.63
2019-01-28T06:58:48.846Z,93101.81
2019-01-28T07:01:17.129Z,93113.17
2019-01-28T07:03:45.404Z,93117.45
2019-01-28T07:06:13.773Z,93118.83
2019-01-28T07:08:43.786Z,93114.97
2019-01-28T07:11:12.102Z,93121.95
2019-01-28T07:13:40.488Z,93102.16
2019-01-28T07:16:09.448Z,93130.95
2019-01-28T07:18:37.732Z,93109.80
2019-01-28T07:21:06.042Z,93109.91
2019-01-28T07:23:34.317Z,93116.47
2019-01-28T07:26:02.597Z,93099.30
2019-01-28T07:28:30.926Z,93116.12
2019-01-28T07:30:59.252Z,93108.17
2019-01-28T07:33:27.532Z,93093.38
2019-01-28T07:35:55.847Z,93095.27
2019-01-28T07:38:24.145Z,93096.84
2019-01-28T07:40:52.425Z,93107.64
2019-01-28T07:43:20.745Z,93113.36
2019-01-28T07:45:49.021Z,93108.55
2019-01-28T07:48:17.371Z,93101.50
2019-01-28T07:50:45.683Z,93103.80
2019-01-28T07:53:14.034Z,93102.25
2019-01-28T07:55:42.384Z,93097.70
2019-01-28T07:58:10.760Z,93087.23
2019-01-28T08:00:39.041Z,93091.72
2019-01-28T08:03:07.318Z,93072.25
2019-01-28T08:05:35.655Z,93087.37
2019-01-28T08:08:04.097Z,93083.27
2019-01-28T08:10:32.380Z,93087.31
2019-01-28T08:13:00.691Z,93088.90
2019-01-28T08:15:29.144Z,93076.01
2019-01-28T08:17:57.501Z,93075.25
2019-01-28T08:20:25.813Z,93076.16
2019-01-28T08:22:54.090Z,93068.07
2019-01-28T08:25:22.605Z,93073.54
2019-01-28T08:27:51.037Z,93058.45
2019-01-28T08:30:27.392Z,93049.91
2019-01-28T08:32:55.794Z,93061.02
2019-01-28T08:35:24.222Z,93045.62
2019-01-28T08:37:52.521Z,93058.94
2019-01-28T08:40:22.702Z,93052.16
2019-01-28T08:42:50.995Z,93047.80
2019-01-28T08:45:19.274Z,93063.98
2019-01-28T08:47:47.596Z,93052.64
2019-01-28T08:50:26.642Z,93046.52
2019-01-28T08:52:55.047Z,93049.19
2019-01-28T08:55:25.275Z,93038.83
2019-01-28T08:57:53.793Z,93035.49
2019-01-28T09:00:24.410Z,93035.34
2019-01-28T09:02:52.693Z,93011.53
2019-01-28T09:05:22.398Z,93011.53
2019-01-28T09:07:50.853Z,93010.86
2019-01-28T09:10:21.987Z,93015.78
2019-01-28T09:12:50.277Z,93017.63
2019-01-28T09:15:20.614Z,93024.03
2019-01-28T09:17:48.973Z,92998.14
2019-01-28T09:20:28.747Z,92998.14
2019-01-28T09:22:57.097Z,93007.83
2019-01-28T09:25:25.382Z,93014.58
2019-01-28T09:27:53.703Z,93010.42
2019-01-28T09:30:26.970Z,93005.18
2019-01-28T09:32:55.241Z,92995.67
2019-01-28T09:35:23.625Z,92992.30
2019-01-28T09:37:52.153Z,92992.30
2019-01-28T09:40:25.270Z,92986.17
2019-01-28T09:42:53.672Z,92986.17
2019-01-28T09:45:24.392Z,92974.47
2019-01-28T09:47:52.683Z,92965.42
2019-01-28T09:50:21.091Z,92969.61
2019-01-28T09:52:50.409Z,92969.61
2019-01-28T09:55:18.695Z,92982.17
2019-01-28T09:57:47.090Z,92978.80
2019-01-28T10:00:21.942Z,92978.80
2019-01-28T10:02:50.222Z,92982.69
2019-01-28T10:05:18.557Z,92972.86
2019-01-28T10:07:46.827Z,92973.31
2019-01-28T10:10:19.409Z,92968.53
2019-01-28T10:12:47.743Z,92966.46
2019-01-28T10:15:19.272Z,92966.46
2019-01-28T10:17:47.553Z,92945.13
2019-01-28T10:20:19.194Z,92945.13
2019-01-28T10:22:47.480Z,92939.78
2019-01-28T10:25:15.834Z,92937.63
2019-01-28T10:27:44.328Z,92946.45
2019-01-28T10:30:15.916Z,92939.56
2019-01-28T10:32:44.273Z,92909.88
2019-01-28T10:35:12.590Z,92909.88
2019-01-28T10:37:40.946Z,92915.48
2019-01-28T10:40:15.308Z,92915.48
2019-01-28T10:42:43.621Z,92912.41
2019-01-28T10:45:13.757Z,92913.34
2019-01-28T10:47:42.117Z,92900.73
2019-01-28T10:50:13.982Z,92892.77
2019-01-28T10:52:42.465Z,92892.77
2019-01-28T10:55:12.554Z,92893.93
2019-01-28T10:57:40.886Z,92893.93
2019-01-28T11:00:15.069Z,92888.62
2019-01-28T11:02:43.431Z,92883.07
2019-01-28T11:05:11.746Z,92883.07
2019-01-28T11:07:40.024Z,92881.93
2019-01-28T11:10:11.813Z,92870.31
2019-01-28T11:12:40.185Z,92870.31
2019-01-28T11:15:14.705Z,92870.42
2019-01-28T11:17:43.003Z,92872.97
2019-01-28T11:20:12.718Z,92875.05
2019-01-28T11:22:41.236Z,92867.59
2019-01-28T11:25:15.087Z,92871.88
2019-01-28T11:27:43.541Z,92870.75
2019-01-28T11:30:15.242Z,92867.03
2019-01-28T11:32:43.650Z,92851.43
2019-01-28T11:35:12.051Z,92867.55
2019-01-28T11:37:40.416Z,92874.66
2019-01-28T11:40:14.395Z,92874.66
2019-01-28T11:42:42.820Z,92872.81
2019-01-28T11:45:14.560Z,92876.67
2019-01-28T11:47:42.923Z,92872.41
2019-01-28T11:50:14.286Z,92876.89
2019-01-28T11:52:42.785Z,92873.28
2019-01-28T11:55:11.078Z,92871.08
2019-01-28T11:57:39.400Z,92871.08
2019-01-28T12:00:37.602Z,92858.13
2019-01-28T12:03:06.055Z,92869.23
2019-01-28T12:05:34.632Z,92862.03
2019-01-28T12:08:04.211Z,92861.64
2019-01-28T12:10:32.668Z,92850.03
2019-01-28T12:13:01.091Z,92862.23
2019-01-28T12:15:29.592Z,92856.20
2019-01-28T12:17:57.911Z,92856.20
2019-01-28T12:20:26.399Z,92866.78
2019-01-28T12:22:54.686Z,92853.78
2019-01-28T12:25:23.076Z,92861.55
2019-01-28T12:27:51.504Z,92855.41
2019-01-28T12:30:23.042Z,92867.14
2019-01-28T12:32:51.495Z,92859.37
2019-01-28T12:35:19.991Z,92849.83
2019-01-28T12:37:48.287Z,92857.03
2019-01-28T12:40:20.708Z,92851.23
2019-01-28T12:42:49.058Z,92841.30
2019-01-28T12:45:22.004Z,92846.20
2019-01-28T12:47:50.538Z,92836.39
2019-01-28T12:50:20.361Z,92824.09
2019-01-28T12:52:48.865Z,92819.27
2019-01-28T12:55:21.401Z,92807.48
2019-01-28T12:57:49.985Z,92799.64
2019-01-28T13:00:28.526Z,92791.16
2019-01-28T13:02:57.008Z,92777.83
2019-01-28T13:05:25.987Z,92790.17
2019-01-28T13:07:54.307Z,92766.88
2019-01-28T13:10:24.090Z,92763.17
2019-01-28T13:12:52.367Z,92768.64
2019-01-28T13:15:26.712Z,92762.14
2019-01-28T13:17:54.994Z,92748.02
2019-01-28T13:20:23.488Z,92751.34
2019-01-28T13:22:52.035Z,92749.97
2019-01-28T13:25:22.525Z,92753.76
2019-01-28T13:27:51.021Z,92753.61
2019-01-28T13:30:24.482Z,92727.82
2019-01-28T13:32:52.968Z,92750.73
2019-01-28T13:35:21.448Z,92758.56
2019-01-28T13:37:49.830Z,92736.98
2019-01-28T13:40:19.916Z,92738.64
2019-01-28T13:42:48.200Z,92732.72
2019-01-28T13:45:21.371Z,92738.89
2019-01-28T13:47:50.089Z,92736.87
2019-01-28T13:50:21.138Z,92717.34
2019-01-28T13:52:49.649Z,92718.98
2019-01-28T13:55:18.937Z,92706.81
2019-01-28T13:57:47.427Z,92707.43
2019-01-28T14:00:24.521Z,92718.90
2019-01-28T14:02:52.798Z,92702.64
2019-01-28T14:05:21.286Z,92699.18
2019-01-28T14:07:49.612Z,92716.50
2019-01-28T14:10:20.457Z,92723.84
2019-01-28T14:12:48.870Z,92699.28
2019-01-28T14:15:25.880Z,92723.88
2019-01-28T14:17:54.370Z,92728.48
2019-01-28T14:20:30.753Z,92732.36
2019-01-28T14:22:59.227Z,92735.26
2019-01-28T14:25:27.574Z,92724.43
2019-01-28T14:27:56.115Z,92712.37
2019-01-28T14:30:36.217Z,92741.54
2019-01-28T14:33:05.133Z,92723.00
2019-01-28T14:35:33.547Z,92717.19
2019-01-28T14:38:03.705Z,92724.73
2019-01-28T14:40:32.139Z,92730.70
2019-01-28T14:43:00.629Z,92716.86
2019-01-28T14:45:29.114Z,92723.06
2019-01-28T14:47:57.643Z,92721.75
2019-01-28T14:50:32.004Z,92708.86
2019-01-28T14:53:00.494Z,92721.83
2019-01-28T14:55:29.023Z,92721.83
2019-01-28T14:57:57.514Z,92712.33
2019-01-28T15:00:29.052Z,92718.17
2019-01-28T15:02:57.570Z,92735.59
2019-01-28T15:05:25.922Z,92744.62
2019-01-28T15:07:54.575Z,92732.06
2019-01-28T15:10:23.320Z,92732.94
2019-01-28T15:12:51.827Z,92732.94
2019-01-28T15:15:22.919Z,92745.06
2019-01-28T15:17:51.455Z,92731.27
2019-01-28T15:20:19.938Z,92753.37
2019-01-28T15:22:48.426Z,92753.37
2019-01-28T15:25:17.452Z,92753.48
2019-01-28T15:27:45.865Z,92753.48
2019-01-28T15:30:23.471Z,92759.41
2019-01-28T15:32:51.987Z,92759.41
2019-01-28T15:35:20.518Z,92763.89
2019-01-28T15:37:49.057Z,92764.91
2019-01-28T15:40:20.061Z,92764.91
2019-01-28T15:42:48.546Z,92757.03
2019-01-28T15:45:28.681Z,92750.89
2019-01-28T15:47:57.168Z,92743.45
2019-01-28T15:50:25.659Z,92742.29
2019-01-28T15:52:54.183Z,92757.01
2019-01-28T15:55:28.458Z,92750.34
2019-01-28T15:57:56.943Z,92758.45
2019-01-28T16:00:27.979Z,92758.45
2019-01-28T16:02:56.462Z,92746.28
2019-01-28T16:05:24.955Z,92746.28
2019-01-28T16:07:53.481Z,92752.44
2019-01-28T16:10:21.969Z,92746.57
2019-01-28T16:12:50.459Z,92741.06
2019-01-28T16:15:24.785Z,92746.25
2019-01-28T16:17:53.276Z,92753.04
2019-01-28T16:20:21.777Z,92752.27
2019-01-28T16:22:50.317Z,92740.94
2019-01-28T16:25:18.800Z,92751.28
2019-01-28T16:27:47.288Z,92742.95
2019-01-28T16:30:26.445Z,92733.78
2019-01-28T16:32:54.047Z,92733.78
2019-01-28T16:35:23.494Z,92765.52
2019-01-28T16:37:52.972Z,92758.98
2019-01-28T16:40:26.647Z,92761.09
2019-01-28T16:42:55.665Z,92768.41
2019-01-28T16:45:24.892Z,92766.15
2019-01-28T16:47:53.863Z,92761.16
2019-01-28T16:50:31.309Z,92768.00
2019-01-28T16:53:00.463Z,92763.61
2019-01-28T16:55:29.253Z,92750.19
2019-01-28T16:57:58.897Z,92760.57
2019-01-28T17:00:30.060Z,92765.91
2019-01-28T17:02:58.757Z,92756.80
2019-01-28T17:05:27.803Z,92782.34
2019-01-28T17:07:56.719Z,92767.63
2019-01-28T17:10:25.626Z,92776.06
2019-01-28T17:12:54.398Z,92774.45
2019-01-28T17:15:23.997Z,92753.08
2019-01-28T17:17:52.908Z,92792.89
2019-01-28T17:20:35.530Z,92773.41
2019-01-28T17:23:02.815Z,92774.39
2019-01-28T17:25:40.341Z,92786.73
2019-01-28T17:28:09.137Z,92792.84
2019-01-28T17:30:43.258Z,92787.80
2019-01-28T17:33:12.106Z,92786.38
2019-01-28T17:35:40.910Z,92792.52
2019-01-28T17:38:10.700Z,92790.84
2019-01-28T17:40:40.159Z,92790.83
2019-01-28T17:43:10.732Z,92778.00
2019-01-28T17:45:39.536Z,92780.02
2019-01-28T17:48:09.087Z,92778.08
2019-01-28T17:50:43.373Z,92794.03
2019-01-28T17:53:08.305Z,92785.66
2019-01-28T17:55:37.048Z,92795.50
2019-01-28T17:58:06.669Z,92780.86
2019-01-28T18:00:39.783Z,92790.91
2019-01-28T18:03:08.512Z,92794.31
2019-01-28T18:05:37.321Z,92804.24
2019-01-28T18:08:06.625Z,92802.64
2019-01-28T18:10:35.466Z,92804.53
2019-01-28T18:13:04.276Z,92818.98
2019-01-28T18:15:32.983Z,92810.88
2019-01-28T18:18:04.633Z,92816.48
2019-01-28T18:20:36.331Z,92803.28
2019-01-28T18:23:05.238Z,92829.74
2019-01-28T18:25:36.731Z,92820.00
2019-01-28T18:28:06.238Z,92826.02
2019-01-28T18:30:51.988Z,92816.27
2019-01-28T18:33:20.707Z,92826.10
2019-01-28T18:35:49.502Z,92829.77
2019-01-28T18:38:19.708Z,92823.25
2019-01-28T18:40:48.425Z,92809.89
2019-01-28T18:43:17.342Z,92809.89
2019-01-28T18:45:46.172Z,92828.64
2019-01-28T18:48:16.350Z,92825.11
2019-01-28T18:50:45.060Z,92828.27
2019-01-28T18:53:13.826Z,92838.39
2019-01-28T18:55:43.961Z,92832.66
2019-01-28T18:58:12.673Z,92832.66
2019-01-28T19:00:41.417Z,92819.58
2019-01-28T19:03:10.119Z,92842.71
2019-01-28T19:05:56.628Z,92839.26
2019-01-28T19:08:27.004Z,92844.80
2019-01-28T19:11:00.282Z,92842.67
2019-01-28T19:13:30.563Z,92827.79
2019-01-28T19:16:00.947Z,92841.03
2019-01-28T19:18:34.407Z,92831.63
2019-01-28T19:21:13.504Z,92868.64
2019-01-28T19:23:42.642Z,92838.39
2019-01-28T19:26:11.527Z,92836.99
2019-01-28T19:28:40.230Z,92836.99
2019-01-28T19:31:09.083Z,92838.09
2019-01-28T19:33:37.783Z,92837.91
2019-01-28T19:36:06.624Z,92842.78
2019-01-28T19:38:35.375Z,92844.78
2019-01-28T19:41:04.189Z,92828.02
2019-01-28T19:43:32.890Z,92827.70
2019-01-28T19:46:01.632Z,92854.97
2019-01-28T19:48:30.328Z,92837.28
2019-01-28T19:51:00.505Z,92837.28
2019-01-28T19:53:29.254Z,92853.64
2019-01-28T19:55:57.967Z,92855.45
2019-01-28T19:58:26.679Z,92857.88
2019-01-28T20:00:55.424Z,92855.14
2019-01-28T20:03:24.135Z,92869.54
2019-01-28T20:05:52.830Z,92850.05
2019-01-28T20:08:21.579Z,92855.97
2019-01-28T20:10:50.494Z,92855.97
2019-01-28T20:13:19.291Z,92858.05
2019-01-28T20:15:48.044Z,92864.55
2019-01-28T20:18:16.747Z,92852.34
2019-01-28T20:20:45.447Z,92842.71
2019-01-28T20:23:14.235Z,92864.67
2019-01-28T20:25:42.946Z,92853.20
2019-01-28T20:28:13.201Z,92851.06
2019-01-28T20:30:42.003Z,92861.98
2019-01-28T20:33:10.710Z,92861.95
2019-01-28T20:35:39.431Z,92844.26
2019-01-28T20:38:15.404Z,92865.50
2019-01-28T20:40:38.624Z,92850.61
2019-01-28T20:43:08.327Z,92849.44
2019-01-28T20:45:44.933Z,92849.44
2019-01-28T20:48:10.295Z,92848.27
2019-01-28T20:50:38.995Z,92830.67
2019-01-28T20:53:07.756Z,92830.67
2019-01-28T20:55:36.475Z,92855.42
2019-01-28T20:58:05.619Z,92850.40
2019-01-28T21:00:34.352Z,92863.23
2019-01-28T21:03:03.033Z,92857.88
2019-01-28T21:05:31.734Z,92854.14
2019-01-28T21:08:01.940Z,92836.14
2019-01-28T21:10:30.647Z,92851.48
2019-01-28T21:12:59.351Z,92839.27
2019-01-28T21:15:28.163Z,92858.84
2019-01-28T21:17:56.823Z,92858.80
2019-01-28T21:20:25.537Z,92865.22
2019-01-28T21:22:54.276Z,92872.14
2019-01-28T21:25:28.724Z,92862.86
2019-01-28T21:27:57.551Z,92877.25
2019-01-28T21:30:31.717Z,92876.17
2019-01-28T21:33:00.513Z,92876.64
2019-01-28T21:35:49.185Z,92862.81
2019-01-28T21:38:25.571Z,92875.71
2019-01-28T21:40:54.314Z,92862.99
2019-01-28T21:43:23.013Z,92862.40
2019-01-28T21:45:52.570Z,92869.83
2019-01-28T21:48:21.315Z,92871.16
2019-01-28T21:50:50.022Z,92880.38
2019-01-28T21:53:18.716Z,92881.53
2019-01-28T21:55:47.453Z,92880.02
2019-01-28T21:58:16.151Z,92865.05
2019-01-28T22:00:45.014Z,92873.67
2019-01-28T22:03:13.753Z,92875.31
2019-01-28T22:05:42.449Z,92870.88
2019-01-28T22:08:11.083Z,92877.02
2019-01-28T22:10:39.746Z,92890.73
2019-01-28T22:13:08.509Z,92874.72
2019-01-28T22:15:37.215Z,92876.73
2019-01-28T22:18:06.047Z,92873.63
2019-01-28T22:20:34.685Z,92873.63
2019-01-28T22:23:03.307Z,92880.61
2019-01-28T22:25:32.046Z,92878.16
2019-01-28T22:28:00.753Z,92882.05
2019-01-28T22:30:29.380Z,92874.95
2019-01-28T22:32:58.041Z,92879.50
2019-01-28T22:35:26.665Z,92867.83
2019-01-28T22:37:55.291Z,92878.75
2019-01-28T22:40:23.952Z,92870.30
2019-01-28T22:42:52.654Z,92867.92
2019-01-28T22:45:21.781Z,92887.11
2019-01-28T22:47:51.318Z,92884.52
2019-01-28T22:50:21.352Z,92884.52
2019-01-28T22:52:49.988Z,92877.44
2019-01-28T22:55:21.886Z,92885.02
2019-01-28T22:57:50.529Z,92867.19
2019-01-28T23:00:51.327Z,92889.43
2019-01-28T23:03:21.667Z,92876.63
2019-01-28T23:05:50.298Z,92877.39
2019-01-28T23:08:18.966Z,92872.20
2019-01-28T23:10:47.597Z,92885.77
2019-01-28T23:13:16.223Z,92880.95
2019-01-28T23:15:44.890Z,92859.62
2019-01-28T23:18:13.525Z,92890.55
2019-01-28T23:20:42.149Z,92894.73
2019-01-28T23:23:10.815Z,92903.48
2019-01-28T23:25:39.458Z,92892.95
2019-01-28T23:28:09.184Z,92911.75
2019-01-28T23:30:37.942Z,92911.75
2019-01-28T23:33:06.674Z,92884.21
2019-01-28T23:35:35.303Z,92892.55
2019-01-28T23:38:05.167Z,92883.09
2019-01-28T23:40:33.822Z,92896.91
2019-01-28T23:43:02.438Z,92886.98
2019-01-28T23:45:31.114Z,92887.72
2019-01-28T23:47:59.745Z,92887.72
2019-01-28T23:50:29.225Z,92892.16
2019-01-28T23:52:57.874Z,92879.40
2019-01-28T23:55:26.501Z,92884.78
2019-01-28T23:57:56.894Z,92908.77
